createdAt,value
2017-07-10T00:00:26.030Z,27.34
2017-07-10T00:01:06.490Z,27.38
2017-07-10T00:01:46.947Z,27.38
2017-07-10T00:02:27.418Z,27.34
2017-07-10T00:03:07.878Z,27.35
2017-07-10T00:03:48.335Z,27.44
2017-07-10T00:04:28.793Z,27.38
2017-07-10T00:05:09.257Z,27.44
2017-07-10T00:05:49.756Z,27.38
2017-07-10T00:06:30.170Z,27.35
2017-07-10T00:07:10.628Z,27.37
2017-07-10T00:07:51.117Z,27.38
2017-07-10T00:08:31.535Z,27.33
2017-07-10T00:09:11.992Z,27.41
2017-07-10T00:09:52.443Z,27.4
2017-07-10T00:10:32.906Z,27.29
2017-07-10T00:11:13.369Z,27.34
2017-07-10T00:11:53.827Z,27.3
2017-07-10T00:12:34.276Z,27.37
2017-07-10T00:13:14.756Z,27.29
2017-07-10T00:13:55.288Z,27.34
2017-07-10T00:14:35.742Z,27.3
2017-07-10T00:15:16.193Z,27.38
2017-07-10T00:15:56.655Z,27.33
2017-07-10T00:16:37.167Z,27.28
2017-07-10T00:17:17.563Z,27.35
2017-07-10T00:17:58.021Z,27.26
2017-07-10T00:18:38.479Z,27.35
2017-07-10T00:19:19.767Z,27.35
2017-07-10T00:20:00.663Z,27.4
2017-07-10T00:20:41.088Z,27.3
2017-07-10T00:21:21.544Z,27.33
2017-07-10T00:22:02.007Z,27.4
2017-07-10T00:22:42.510Z,27.4
2017-07-10T00:23:22.972Z,27.35
2017-07-10T00:24:03.431Z,27.41
2017-07-10T00:24:43.890Z,27.37
2017-07-10T00:25:24.344Z,27.35
2017-07-10T00:26:04.794Z,27.33
2017-07-10T00:26:45.261Z,27.35
2017-07-10T00:27:25.715Z,27.35
2017-07-10T00:28:06.265Z,27.37
2017-07-10T00:28:46.729Z,27.34
2017-07-10T00:29:27.180Z,27.35
2017-07-10T00:30:07.643Z,27.37
2017-07-10T00:30:48.101Z,27.3
2017-07-10T00:31:28.562Z,27.33
2017-07-10T00:32:09.022Z,27.25
2017-07-10T00:32:49.477Z,27.3
2017-07-10T00:33:29.933Z,27.38
2017-07-10T00:34:10.397Z,27.33
2017-07-10T00:34:50.848Z,27.38
2017-07-10T00:35:31.312Z,27.3
2017-07-10T00:36:11.857Z,27.26
2017-07-10T00:36:52.299Z,27.26
2017-07-10T00:37:32.758Z,27.26
2017-07-10T00:38:13.217Z,27.34
2017-07-10T00:38:53.674Z,27.28
2017-07-10T00:39:34.136Z,27.29
2017-07-10T00:40:14.593Z,27.23
2017-07-10T00:40:55.051Z,27.22
2017-07-10T00:41:35.503Z,27.28
2017-07-10T00:42:15.956Z,27.26
2017-07-10T00:42:56.407Z,27.23
2017-07-10T00:43:36.856Z,27.29
2017-07-10T00:44:17.319Z,27.23
2017-07-10T00:44:57.773Z,27.26
2017-07-10T00:45:38.236Z,27.33
2017-07-10T00:46:18.693Z,27.22
2017-07-10T00:46:59.152Z,27.22
2017-07-10T00:47:39.617Z,27.25
2017-07-10T00:48:20.068Z,27.22
2017-07-10T00:49:00.513Z,27.25
2017-07-10T00:49:40.966Z,27.2
2017-07-10T00:50:21.426Z,27.25
2017-07-10T00:51:01.883Z,27.23
2017-07-10T00:51:42.347Z,27.29
2017-07-10T00:52:22.805Z,27.22
2017-07-10T00:53:03.256Z,27.22
2017-07-10T00:53:43.713Z,27.22
2017-07-10T00:54:24.173Z,27.25
2017-07-10T00:55:04.632Z,27.25
2017-07-10T00:55:45.088Z,27.2
2017-07-10T00:56:25.540Z,27.29
2017-07-10T00:57:05.992Z,27.33
2017-07-10T00:57:46.442Z,27.19
2017-07-10T00:58:26.904Z,27.2
2017-07-10T00:59:07.358Z,27.2
2017-07-10T00:59:47.804Z,27.25
2017-07-10T01:00:28.262Z,27.16
2017-07-10T01:01:08.727Z,27.19
2017-07-10T01:01:49.178Z,27.28
2017-07-10T01:02:29.637Z,27.25
2017-07-10T01:03:10.096Z,27.26
2017-07-10T01:03:50.546Z,27.28
2017-07-10T01:04:31.011Z,27.28
2017-07-10T01:05:11.463Z,27.18
2017-07-10T01:05:51.911Z,27.28
2017-07-10T01:06:32.368Z,27.23
2017-07-10T01:07:12.824Z,27.18
2017-07-10T01:07:53.288Z,27.26
2017-07-10T01:08:33.738Z,27.25
2017-07-10T01:09:14.197Z,27.2
2017-07-10T01:09:54.653Z,27.23
2017-07-10T01:10:35.129Z,27.25
2017-07-10T01:11:15.590Z,27.19
2017-07-10T01:11:56.048Z,27.15
2017-07-10T01:12:36.510Z,27.22
2017-07-10T01:13:16.970Z,27.18
2017-07-10T01:13:57.421Z,27.23
2017-07-10T01:14:37.878Z,27.26
2017-07-10T01:15:18.323Z,27.25
2017-07-10T01:15:58.780Z,27.11
2017-07-10T01:16:39.240Z,27.13
2017-07-10T01:17:19.703Z,27.29
2017-07-10T01:18:00.163Z,27.26
2017-07-10T01:18:40.621Z,27.2
2017-07-10T01:19:21.075Z,27.26
2017-07-10T01:20:01.531Z,27.25
2017-07-10T01:20:41.990Z,27.26
2017-07-10T01:21:22.450Z,27.18
2017-07-10T01:22:02.902Z,27.25
2017-07-10T01:22:43.363Z,27.1
2017-07-10T01:23:23.824Z,27.19
2017-07-10T01:24:04.281Z,27.22
2017-07-10T01:24:44.738Z,27.19
2017-07-10T01:25:25.227Z,27.25
2017-07-10T01:26:05.642Z,27.18
2017-07-10T01:26:46.105Z,27.13
2017-07-10T01:27:26.564Z,27.25
2017-07-10T01:28:07.024Z,27.25
2017-07-10T01:28:47.481Z,27.11
2017-07-10T01:29:27.933Z,27.2
2017-07-10T01:30:08.424Z,27.15
2017-07-10T01:30:48.847Z,27.22
2017-07-10T01:31:29.294Z,27.2
2017-07-10T01:32:09.746Z,27.19
2017-07-10T01:32:50.211Z,27.16
2017-07-10T01:33:30.653Z,27.2
2017-07-10T01:34:11.113Z,27.19
2017-07-10T01:34:51.571Z,27.18
2017-07-10T01:35:32.029Z,27.1
2017-07-10T01:36:12.495Z,27.13
2017-07-10T01:36:52.953Z,27.18
2017-07-10T01:37:33.418Z,27.1
2017-07-10T01:38:13.878Z,27.13
2017-07-10T01:38:54.336Z,27.1
2017-07-10T01:39:34.798Z,27.18
2017-07-10T01:40:15.266Z,27.16
2017-07-10T01:40:55.713Z,27.13
2017-07-10T01:41:36.170Z,27.15
2017-07-10T01:42:16.628Z,27.13
2017-07-10T01:42:57.088Z,27.15
2017-07-10T01:43:37.545Z,27.11
2017-07-10T01:44:18.005Z,27.1
2017-07-10T01:44:58.456Z,27.07
2017-07-10T01:45:38.914Z,27.05
2017-07-10T01:46:19.376Z,27.1
2017-07-10T01:46:59.835Z,27.15
2017-07-10T01:47:40.300Z,27.15
2017-07-10T01:48:20.755Z,27.13
2017-07-10T01:49:01.222Z,27.05
2017-07-10T01:49:41.678Z,27.07
2017-07-10T01:50:22.134Z,27.07
2017-07-10T01:51:02.584Z,27.1
2017-07-10T01:51:43.033Z,27.1
2017-07-10T01:52:23.493Z,27.15
2017-07-10T01:53:03.960Z,27.08
2017-07-10T01:53:44.415Z,27.1
2017-07-10T01:54:24.911Z,27.11
2017-07-10T01:55:05.366Z,27.1
2017-07-10T01:55:45.824Z,27.1
2017-07-10T01:56:26.286Z,27.08
2017-07-10T01:57:06.749Z,27.15
2017-07-10T01:57:47.218Z,27.1
2017-07-10T01:58:27.676Z,27.08
2017-07-10T01:59:08.129Z,27.16
2017-07-10T01:59:48.585Z,27.1
2017-07-10T02:00:29.046Z,27.11
2017-07-10T02:01:09.501Z,27.1
2017-07-10T02:01:49.957Z,27.03
2017-07-10T02:02:30.412Z,27.1
2017-07-10T02:03:10.871Z,27.13
2017-07-10T02:03:51.338Z,27.07
2017-07-10T02:04:31.795Z,27.05
2017-07-10T02:05:12.254Z,27.11
2017-07-10T02:05:52.708Z,27
2017-07-10T02:06:33.210Z,27.01
2017-07-10T02:07:13.662Z,27
2017-07-10T02:07:54.106Z,27
2017-07-10T02:08:34.846Z,27.03
2017-07-10T02:09:15.299Z,26.97
2017-07-10T02:09:55.756Z,26.97
2017-07-10T02:10:36.211Z,26.97
2017-07-10T02:11:16.668Z,27.05
2017-07-10T02:11:57.134Z,27.01
2017-07-10T02:12:37.591Z,27
2017-07-10T02:13:18.050Z,27
2017-07-10T02:13:58.512Z,26.98
2017-07-10T02:14:38.974Z,27.01
2017-07-10T02:15:19.428Z,27.01
2017-07-10T02:15:59.877Z,27
2017-07-10T02:16:40.335Z,27.04
2017-07-10T02:17:20.786Z,27.01
2017-07-10T02:18:01.240Z,26.96
2017-07-10T02:18:41.702Z,27.04
2017-07-10T02:19:22.161Z,26.97
2017-07-10T02:20:02.623Z,27.01
2017-07-10T02:20:43.081Z,26.97
2017-07-10T02:21:23.540Z,27.05
2017-07-10T02:22:03.997Z,27.01
2017-07-10T02:22:44.459Z,27.01
2017-07-10T02:23:24.919Z,26.98
2017-07-10T02:24:05.378Z,27.03
2017-07-10T02:24:45.829Z,26.92
2017-07-10T02:25:26.289Z,27.04
2017-07-10T02:26:06.754Z,26.98
2017-07-10T02:26:47.215Z,26.98
2017-07-10T02:27:27.672Z,26.93
2017-07-10T02:28:08.132Z,26.97
2017-07-10T02:28:48.590Z,26.89
2017-07-10T02:29:29.049Z,26.91
2017-07-10T02:30:09.504Z,26.97
2017-07-10T02:30:49.965Z,26.92
2017-07-10T02:31:30.424Z,26.97
2017-07-10T02:32:10.875Z,26.89
2017-07-10T02:32:51.338Z,26.88
2017-07-10T02:33:31.802Z,26.92
2017-07-10T02:34:12.355Z,26.91
2017-07-10T02:34:52.818Z,26.93
2017-07-10T02:35:33.270Z,26.91
2017-07-10T02:36:13.728Z,26.92
2017-07-10T02:36:54.190Z,26.93
2017-07-10T02:37:34.647Z,26.91
2017-07-10T02:38:15.104Z,26.86
2017-07-10T02:38:55.556Z,26.93
2017-07-10T02:39:36.013Z,26.86
2017-07-10T02:40:16.475Z,26.96
2017-07-10T02:40:56.934Z,26.89
2017-07-10T02:41:37.398Z,26.92
2017-07-10T02:42:17.858Z,26.89
2017-07-10T02:42:58.311Z,26.92
2017-07-10T02:43:38.776Z,26.89
2017-07-10T02:44:19.224Z,26.89
2017-07-10T02:44:59.685Z,26.92
2017-07-10T02:45:40.141Z,26.86
2017-07-10T02:46:20.603Z,26.88
2017-07-10T02:47:01.065Z,26.96
2017-07-10T02:47:41.537Z,26.86
2017-07-10T02:48:21.994Z,26.86
2017-07-10T02:49:02.454Z,26.89
2017-07-10T02:49:42.903Z,26.86
2017-07-10T02:50:23.363Z,26.97
2017-07-10T02:51:03.820Z,26.93
2017-07-10T02:51:44.278Z,26.91
2017-07-10T02:52:24.736Z,26.85
2017-07-10T02:53:05.196Z,26.85
2017-07-10T02:53:45.674Z,26.93
2017-07-10T02:54:26.155Z,26.91
2017-07-10T02:55:06.578Z,26.92
2017-07-10T02:55:47.033Z,26.88
2017-07-10T02:56:27.577Z,26.92
2017-07-10T02:57:08.032Z,26.93
2017-07-10T02:57:48.507Z,26.88
2017-07-10T02:58:28.969Z,26.91
2017-07-10T02:59:09.439Z,26.93
2017-07-10T02:59:49.898Z,26.92
2017-07-10T03:00:30.359Z,26.83
2017-07-10T03:01:10.816Z,26.88
2017-07-10T03:01:51.275Z,26.89
2017-07-10T03:02:31.732Z,26.89
2017-07-10T03:03:12.191Z,26.88
2017-07-10T03:03:52.679Z,26.91
2017-07-10T03:04:33.132Z,26.85
2017-07-10T03:05:13.593Z,26.91
2017-07-10T03:05:54.047Z,26.85
2017-07-10T03:06:34.506Z,26.91
2017-07-10T03:07:14.964Z,26.83
2017-07-10T03:07:55.420Z,26.83
2017-07-10T03:08:35.875Z,26.89
2017-07-10T03:09:16.316Z,26.88
2017-07-10T03:09:56.777Z,26.89
2017-07-10T03:10:37.251Z,26.83
2017-07-10T03:11:17.706Z,26.89
2017-07-10T03:11:58.182Z,26.93
2017-07-10T03:12:38.619Z,26.83
2017-07-10T03:13:19.077Z,26.96
2017-07-10T03:13:59.544Z,26.82
2017-07-10T03:14:40.000Z,26.92
2017-07-10T03:15:20.456Z,26.81
2017-07-10T03:16:00.919Z,26.86
2017-07-10T03:16:41.387Z,26.79
2017-07-10T03:17:21.838Z,26.86
2017-07-10T03:18:02.296Z,26.92
2017-07-10T03:18:42.758Z,26.85
2017-07-10T03:19:23.215Z,26.86
2017-07-10T03:20:03.698Z,26.86
2017-07-10T03:20:44.160Z,26.81
2017-07-10T03:21:24.624Z,26.78
2017-07-10T03:22:05.083Z,26.86
2017-07-10T03:22:45.526Z,26.93
2017-07-10T03:23:25.984Z,26.89
2017-07-10T03:24:06.453Z,26.91
2017-07-10T03:24:46.909Z,26.85
2017-07-10T03:25:27.371Z,26.78
2017-07-10T03:26:07.833Z,26.78
2017-07-10T03:26:48.296Z,26.78
2017-07-10T03:27:28.751Z,26.89
2017-07-10T03:28:09.215Z,26.79
2017-07-10T03:28:49.670Z,26.78
2017-07-10T03:29:30.133Z,26.79
2017-07-10T03:30:10.588Z,26.85
2017-07-10T03:30:51.038Z,26.79
2017-07-10T03:31:31.492Z,26.85
2017-07-10T03:32:11.949Z,26.79
2017-07-10T03:32:52.403Z,26.81
2017-07-10T03:33:32.865Z,26.79
2017-07-10T03:34:13.324Z,26.82
2017-07-10T03:34:53.786Z,26.86
2017-07-10T03:35:34.241Z,26.88
2017-07-10T03:36:14.703Z,26.85
2017-07-10T03:36:55.164Z,26.79
2017-07-10T03:37:35.626Z,26.82
2017-07-10T03:38:16.093Z,26.82
2017-07-10T03:38:56.550Z,26.76
2017-07-10T03:39:37.003Z,26.73
2017-07-10T03:40:17.463Z,26.63
2017-07-10T03:40:57.945Z,26.76
2017-07-10T03:41:38.407Z,26.74
2017-07-10T03:42:18.874Z,26.81
2017-07-10T03:42:59.330Z,26.64
2017-07-10T03:43:39.785Z,26.71
2017-07-10T03:44:20.244Z,26.64
2017-07-10T03:45:00.698Z,26.73
2017-07-10T03:45:41.154Z,26.64
2017-07-10T03:46:21.611Z,26.61
2017-07-10T03:47:02.066Z,26.7
2017-07-10T03:47:42.530Z,26.63
2017-07-10T03:48:22.990Z,26.68
2017-07-10T03:49:03.454Z,26.64
2017-07-10T03:49:43.910Z,26.66
2017-07-10T03:50:24.360Z,26.61
2017-07-10T03:51:04.820Z,26.59
2017-07-10T03:51:45.277Z,26.61
2017-07-10T03:52:25.752Z,26.66
2017-07-10T03:53:06.216Z,26.66
2017-07-10T03:53:46.674Z,26.6
2017-07-10T03:54:27.131Z,26.52
2017-07-10T03:55:07.590Z,26.55
2017-07-10T03:55:49.650Z,26.6
2017-07-10T03:56:30.108Z,26.63
2017-07-10T03:57:10.570Z,26.64
2017-07-10T03:57:51.010Z,26.68
2017-07-10T03:58:31.467Z,26.68
2017-07-10T03:59:11.928Z,26.66
2017-07-10T03:59:52.390Z,26.64
2017-07-10T04:00:32.852Z,26.63
2017-07-10T04:01:13.316Z,26.61
2017-07-10T04:01:53.779Z,26.71
2017-07-10T04:02:34.238Z,26.67
2017-07-10T04:03:14.696Z,26.79
2017-07-10T04:03:55.155Z,26.67
2017-07-10T04:04:35.612Z,26.71
2017-07-10T04:05:16.068Z,26.7
2017-07-10T04:05:56.526Z,26.82
2017-07-10T04:06:36.979Z,26.79
2017-07-10T04:07:17.441Z,26.73
2017-07-10T04:07:57.896Z,26.79
2017-07-10T04:08:38.330Z,26.74
2017-07-10T04:09:18.799Z,26.78
2017-07-10T04:09:59.258Z,26.66
2017-07-10T04:10:39.719Z,26.73
2017-07-10T04:11:20.175Z,26.73
2017-07-10T04:12:00.639Z,26.76
2017-07-10T04:12:41.090Z,26.76
2017-07-10T04:13:21.554Z,26.74
2017-07-10T04:14:02.011Z,26.76
2017-07-10T04:14:42.468Z,26.76
2017-07-10T04:15:22.922Z,26.73
2017-07-10T04:16:03.382Z,26.73
2017-07-10T04:16:43.841Z,26.74
2017-07-10T04:17:24.305Z,26.76
2017-07-10T04:18:04.771Z,26.76
2017-07-10T04:18:45.225Z,26.73
2017-07-10T04:19:25.679Z,26.74
2017-07-10T04:20:06.141Z,26.76
2017-07-10T04:20:46.599Z,26.73
2017-07-10T04:21:27.056Z,26.79
2017-07-10T04:22:07.515Z,26.73
2017-07-10T04:22:47.969Z,26.76
2017-07-10T04:23:28.426Z,26.76
2017-07-10T04:24:08.884Z,26.82
2017-07-10T04:24:49.337Z,26.79
2017-07-10T04:25:29.807Z,26.73
2017-07-10T04:26:10.258Z,26.82
2017-07-10T04:26:50.704Z,26.76
2017-07-10T04:27:31.160Z,26.85
2017-07-10T04:28:11.618Z,26.82
2017-07-10T04:28:52.070Z,26.81
2017-07-10T04:29:32.576Z,26.82
2017-07-10T04:30:12.991Z,26.76
2017-07-10T04:30:53.453Z,26.82
2017-07-10T04:31:33.915Z,26.82
2017-07-10T04:32:14.372Z,26.74
2017-07-10T04:32:54.831Z,26.73
2017-07-10T04:33:35.287Z,26.83
2017-07-10T04:34:15.744Z,26.73
2017-07-10T04:34:56.201Z,26.71
2017-07-10T04:35:36.659Z,26.71
2017-07-10T04:36:17.122Z,26.73
2017-07-10T04:36:57.584Z,26.76
2017-07-10T04:37:38.038Z,26.74
2017-07-10T04:38:18.496Z,26.64
2017-07-10T04:38:58.955Z,26.76
2017-07-10T04:39:39.416Z,26.64
2017-07-10T04:40:19.877Z,26.68
2017-07-10T04:41:00.329Z,26.64
2017-07-10T04:41:40.792Z,26.74
2017-07-10T04:42:21.255Z,26.67
2017-07-10T04:43:01.706Z,26.74
2017-07-10T04:43:42.171Z,26.68
2017-07-10T04:44:22.621Z,26.64
2017-07-10T04:45:03.083Z,26.66
2017-07-10T04:45:43.542Z,26.7
2017-07-10T04:46:23.997Z,26.66
2017-07-10T04:47:04.460Z,26.67
2017-07-10T04:47:44.912Z,26.61
2017-07-10T04:48:25.348Z,26.59
2017-07-10T04:49:05.798Z,26.55
2017-07-10T04:49:46.256Z,26.6
2017-07-10T04:50:26.716Z,26.66
2017-07-10T04:51:07.176Z,26.6
2017-07-10T04:51:47.637Z,26.49
2017-07-10T04:52:28.101Z,26.52
2017-07-10T04:53:08.567Z,26.55
2017-07-10T04:53:49.019Z,26.49
2017-07-10T04:54:29.478Z,26.52
2017-07-10T04:55:09.935Z,26.51
2017-07-10T04:55:50.382Z,26.51
2017-07-10T04:56:30.839Z,26.48
2017-07-10T04:57:11.295Z,26.53
2017-07-10T04:57:51.748Z,26.49
2017-07-10T04:58:32.220Z,26.49
2017-07-10T04:59:12.683Z,26.53
2017-07-10T04:59:53.151Z,26.48
2017-07-10T05:00:33.602Z,26.52
2017-07-10T05:01:14.059Z,26.48
2017-07-10T05:01:54.538Z,26.48
2017-07-10T05:02:34.975Z,26.48
2017-07-10T05:03:15.432Z,26.48
2017-07-10T05:03:55.903Z,26.49
2017-07-10T05:04:36.361Z,26.46
2017-07-10T05:05:16.821Z,26.51
2017-07-10T05:05:57.280Z,26.52
2017-07-10T05:06:37.735Z,26.49
2017-07-10T05:07:18.196Z,26.48
2017-07-10T05:07:58.652Z,26.46
2017-07-10T05:08:39.139Z,26.49
2017-07-10T05:09:19.595Z,26.48
2017-07-10T05:10:00.050Z,26.49
2017-07-10T05:10:40.496Z,26.51
2017-07-10T05:11:20.954Z,26.48
2017-07-10T05:12:01.411Z,26.44
2017-07-10T05:12:41.861Z,26.48
2017-07-10T05:13:22.323Z,26.44
2017-07-10T05:14:02.772Z,26.39
2017-07-10T05:14:43.234Z,26.45
2017-07-10T05:15:23.686Z,26.41
2017-07-10T05:16:04.150Z,26.36
2017-07-10T05:16:44.607Z,26.31
2017-07-10T05:17:25.066Z,26.34
2017-07-10T05:18:05.525Z,26.34
2017-07-10T05:18:45.994Z,26.3
2017-07-10T05:19:26.448Z,26.33
2017-07-10T05:20:06.916Z,26.33
2017-07-10T05:20:47.362Z,26.34
2017-07-10T05:21:27.820Z,26.33
2017-07-10T05:22:08.284Z,26.31
2017-07-10T05:22:48.748Z,26.3
2017-07-10T05:23:29.207Z,26.36
2017-07-10T05:24:09.654Z,26.27
2017-07-10T05:24:50.121Z,26.27
2017-07-10T05:25:30.585Z,26.31
2017-07-10T05:26:11.049Z,26.3
2017-07-10T05:26:51.505Z,26.3
2017-07-10T05:27:31.957Z,26.3
2017-07-10T05:28:12.421Z,26.27
2017-07-10T05:28:52.878Z,26.29
2017-07-10T05:29:33.340Z,26.27
2017-07-10T05:30:13.796Z,26.29
2017-07-10T05:30:54.254Z,26.27
2017-07-10T05:31:34.719Z,26.3
2017-07-10T05:32:15.218Z,26.27
2017-07-10T05:32:55.631Z,26.31
2017-07-10T05:33:36.094Z,26.33
2017-07-10T05:34:16.545Z,26.33
2017-07-10T05:34:57.006Z,26.31
2017-07-10T05:35:37.463Z,26.34
2017-07-10T05:36:17.924Z,26.33
2017-07-10T05:36:58.382Z,26.27
2017-07-10T05:37:38.836Z,26.34
2017-07-10T05:38:19.295Z,26.33
2017-07-10T05:38:59.756Z,26.34
2017-07-10T05:39:40.215Z,26.29
2017-07-10T05:40:20.675Z,26.27
2017-07-10T05:41:01.130Z,26.37
2017-07-10T05:41:41.590Z,26.37
2017-07-10T05:42:22.042Z,26.24
2017-07-10T05:43:02.500Z,26.31
2017-07-10T05:43:42.953Z,26.3
2017-07-10T05:44:23.411Z,26.27
2017-07-10T05:45:03.863Z,26.33
2017-07-10T05:45:44.320Z,26.26
2017-07-10T05:46:24.784Z,26.31
2017-07-10T05:47:05.241Z,26.26
2017-07-10T05:47:45.695Z,26.3
2017-07-10T05:48:26.153Z,26.3
2017-07-10T05:49:06.613Z,26.29
2017-07-10T05:49:47.073Z,26.26
2017-07-10T05:50:27.533Z,26.24
2017-07-10T05:51:07.996Z,26.27
2017-07-10T05:51:48.449Z,26.1
2017-07-10T05:52:28.907Z,26.18
2017-07-10T05:53:09.363Z,26.08
2017-07-10T05:53:49.826Z,25.99
2017-07-10T05:54:30.285Z,26.1
2017-07-10T05:55:10.742Z,25.95
2017-07-10T05:55:51.203Z,25.99
2017-07-10T05:56:31.663Z,25.99
2017-07-10T05:57:12.117Z,25.92
2017-07-10T05:57:52.572Z,25.81
2017-07-10T05:58:33.036Z,25.85
2017-07-10T05:59:13.492Z,25.81
2017-07-10T05:59:53.954Z,25.83
2017-07-10T06:00:34.414Z,25.85
2017-07-10T06:01:14.875Z,25.74
2017-07-10T06:01:55.331Z,25.76
2017-07-10T06:02:35.790Z,25.68
2017-07-10T06:03:16.249Z,25.74
2017-07-10T06:03:56.703Z,25.7
2017-07-10T06:04:37.162Z,25.71
2017-07-10T06:05:17.636Z,25.68
2017-07-10T06:05:58.092Z,25.7
2017-07-10T06:06:38.550Z,25.76
2017-07-10T06:07:19.003Z,25.63
2017-07-10T06:07:59.456Z,25.66
2017-07-10T06:08:39.910Z,25.61
2017-07-10T06:09:20.374Z,25.66
2017-07-10T06:10:00.948Z,25.59
2017-07-10T06:10:41.412Z,25.61
2017-07-10T06:11:21.866Z,25.49
2017-07-10T06:12:02.322Z,25.52
2017-07-10T06:12:42.777Z,25.52
2017-07-10T06:13:23.235Z,25.48
2017-07-10T06:14:03.697Z,25.44
2017-07-10T06:14:44.157Z,25.4
2017-07-10T06:15:24.616Z,25.4
2017-07-10T06:16:05.077Z,25.37
2017-07-10T06:16:45.533Z,25.34
2017-07-10T06:17:25.987Z,25.34
2017-07-10T06:18:06.443Z,25.4
2017-07-10T06:18:46.899Z,25.39
2017-07-10T06:19:27.361Z,25.39
2017-07-10T06:20:07.830Z,25.37
2017-07-10T06:20:48.270Z,25.36
2017-07-10T06:21:28.732Z,25.37
2017-07-10T06:22:09.190Z,25.39
2017-07-10T06:22:49.652Z,25.4
2017-07-10T06:23:30.105Z,25.37
2017-07-10T06:24:10.562Z,25.36
2017-07-10T06:24:51.015Z,25.37
2017-07-10T06:25:31.478Z,25.48
2017-07-10T06:26:11.936Z,25.49
2017-07-10T06:26:52.402Z,25.37
2017-07-10T06:27:32.856Z,25.46
2017-07-10T06:28:13.313Z,25.41
2017-07-10T06:28:53.774Z,25.4
2017-07-10T06:29:34.228Z,25.36
2017-07-10T06:30:14.689Z,25.36
2017-07-10T06:30:55.146Z,25.4
2017-07-10T06:31:35.600Z,25.36
2017-07-10T06:32:16.084Z,25.39
2017-07-10T06:32:56.538Z,25.37
2017-07-10T06:33:36.995Z,25.34
2017-07-10T06:34:17.461Z,25.37
2017-07-10T06:34:57.922Z,25.43
2017-07-10T06:35:38.388Z,25.44
2017-07-10T06:36:18.847Z,25.43
2017-07-10T06:36:59.302Z,25.51
2017-07-10T06:37:39.754Z,25.44
2017-07-10T06:38:20.210Z,25.52
2017-07-10T06:39:00.667Z,25.51
2017-07-10T06:39:41.126Z,25.55
2017-07-10T06:40:21.583Z,25.49
2017-07-10T06:41:02.041Z,25.49
2017-07-10T06:41:42.501Z,25.51
2017-07-10T06:42:22.960Z,25.55
2017-07-10T06:43:03.414Z,25.51
2017-07-10T06:43:43.865Z,25.54
2017-07-10T06:44:24.329Z,25.4
2017-07-10T06:45:04.787Z,25.36
2017-07-10T06:45:45.244Z,25.33
2017-07-10T06:46:25.723Z,25.37
2017-07-10T06:47:06.178Z,25.33
2017-07-10T06:47:46.635Z,25.39
2017-07-10T06:48:27.094Z,25.39
2017-07-10T06:49:07.550Z,25.33
2017-07-10T06:49:48.009Z,25.4
2017-07-10T06:50:28.466Z,25.34
2017-07-10T06:51:08.925Z,25.26
2017-07-10T06:51:49.378Z,25.33
2017-07-10T06:52:29.839Z,25.29
2017-07-10T06:53:10.292Z,25.3
2017-07-10T06:53:50.748Z,25.33
2017-07-10T06:54:31.212Z,25.22
2017-07-10T06:55:11.671Z,25.22
2017-07-10T06:55:52.130Z,25.26
2017-07-10T06:56:32.586Z,25.26
2017-07-10T06:57:13.047Z,25.24
2017-07-10T06:57:53.502Z,25.3
2017-07-10T06:58:33.959Z,25.29
2017-07-10T06:59:14.417Z,25.15
2017-07-10T06:59:54.876Z,25.14
2017-07-10T07:00:35.328Z,25.22
2017-07-10T07:01:15.786Z,25.12
2017-07-10T07:01:56.247Z,25.12
2017-07-10T07:02:36.703Z,25.11
2017-07-10T07:03:17.156Z,25.14
2017-07-10T07:03:57.616Z,25.11
2017-07-10T07:04:38.095Z,25
2017-07-10T07:05:18.557Z,25.03
2017-07-10T07:05:59.011Z,25.11
2017-07-10T07:06:39.472Z,25.19
2017-07-10T07:07:19.926Z,25.09
2017-07-10T07:08:00.384Z,25.21
2017-07-10T07:08:40.850Z,25.24
2017-07-10T07:09:21.312Z,25.19
2017-07-10T07:10:01.772Z,25.21
2017-07-10T07:10:42.229Z,25.26
2017-07-10T07:11:22.681Z,25.31
2017-07-10T07:12:03.141Z,25.31
2017-07-10T07:12:43.600Z,25.37
2017-07-10T07:13:24.065Z,25.34
2017-07-10T07:14:04.521Z,25.4
2017-07-10T07:14:44.979Z,25.34
2017-07-10T07:15:25.437Z,25.48
2017-07-10T07:16:05.891Z,25.43
2017-07-10T07:16:46.347Z,25.49
2017-07-10T07:17:26.801Z,25.46
2017-07-10T07:18:07.270Z,25.56
2017-07-10T07:18:47.720Z,25.54
2017-07-10T07:19:28.184Z,25.62
2017-07-10T07:20:08.645Z,25.61
2017-07-10T07:20:49.103Z,25.62
2017-07-10T07:21:29.830Z,25.59
2017-07-10T07:22:10.293Z,25.77
2017-07-10T07:22:50.745Z,25.76
2017-07-10T07:23:31.211Z,25.74
2017-07-10T07:24:11.667Z,25.86
2017-07-10T07:24:52.127Z,25.8
2017-07-10T07:25:32.583Z,25.81
2017-07-10T07:26:13.062Z,25.92
2017-07-10T07:26:53.524Z,25.93
2017-07-10T07:27:33.981Z,25.85
2017-07-10T07:28:14.441Z,25.86
2017-07-10T07:28:54.897Z,25.89
2017-07-10T07:29:35.355Z,25.85
2017-07-10T07:30:15.816Z,25.93
2017-07-10T07:30:56.276Z,25.96
2017-07-10T07:31:36.738Z,25.95
2017-07-10T07:32:17.188Z,25.91
2017-07-10T07:32:57.646Z,25.95
2017-07-10T07:33:38.338Z,25.91
2017-07-10T07:34:18.797Z,25.92
2017-07-10T07:34:59.257Z,25.85
2017-07-10T07:35:39.720Z,25.8
2017-07-10T07:36:20.167Z,25.73
2017-07-10T07:37:00.624Z,25.77
2017-07-10T07:37:41.101Z,25.74
2017-07-10T07:38:21.558Z,25.77
2017-07-10T07:39:02.005Z,25.83
2017-07-10T07:39:42.459Z,25.81
2017-07-10T07:40:22.916Z,25.81
2017-07-10T07:41:03.369Z,25.78
2017-07-10T07:41:43.859Z,25.83
2017-07-10T07:42:24.315Z,25.73
2017-07-10T07:43:04.779Z,25.73
2017-07-10T07:43:45.235Z,25.74
2017-07-10T07:44:25.733Z,25.8
2017-07-10T07:45:06.124Z,25.77
2017-07-10T07:45:46.584Z,25.77
2017-07-10T07:46:27.040Z,25.71
2017-07-10T07:47:07.507Z,25.73
2017-07-10T07:47:47.967Z,25.71
2017-07-10T07:48:28.432Z,25.71
2017-07-10T07:49:08.887Z,25.66
2017-07-10T07:49:49.340Z,25.67
2017-07-10T07:50:29.793Z,25.73
2017-07-10T07:51:10.252Z,25.61
2017-07-10T07:51:50.707Z,25.63
2017-07-10T07:52:31.157Z,25.62
2017-07-10T07:53:11.611Z,25.56
2017-07-10T07:53:52.070Z,25.66
2017-07-10T07:54:32.530Z,25.7
2017-07-10T07:55:12.992Z,25.55
2017-07-10T07:55:53.455Z,25.62
2017-07-10T07:56:33.911Z,25.61
2017-07-10T07:57:14.368Z,25.7
2017-07-10T07:57:54.827Z,25.59
2017-07-10T07:58:35.273Z,25.63
2017-07-10T07:59:15.729Z,25.62
2017-07-10T07:59:56.185Z,25.63
2017-07-10T08:00:36.644Z,25.59
2017-07-10T08:01:17.102Z,25.59
2017-07-10T08:01:57.558Z,25.59
2017-07-10T08:02:38.016Z,25.54
2017-07-10T08:03:18.487Z,25.56
2017-07-10T08:03:58.925Z,25.52
2017-07-10T08:04:39.382Z,25.54
2017-07-10T08:05:19.843Z,25.52
2017-07-10T08:06:00.303Z,25.54
2017-07-10T08:06:40.762Z,25.43
2017-07-10T08:07:21.474Z,25.46
2017-07-10T08:08:59.065Z,25.46
2017-07-10T08:09:39.525Z,25.51
2017-07-10T08:10:19.985Z,25.52
2017-07-10T08:11:00.443Z,25.52
2017-07-10T08:11:40.932Z,25.54
2017-07-10T08:12:21.382Z,25.54
2017-07-10T08:13:01.828Z,25.49
2017-07-10T08:13:42.283Z,25.56
2017-07-10T08:14:22.747Z,25.55
2017-07-10T08:15:03.202Z,25.58
2017-07-10T08:15:44.079Z,25.56
2017-07-10T08:16:24.534Z,25.61
2017-07-10T08:17:04.990Z,25.55
2017-07-10T08:17:45.447Z,25.59
2017-07-10T08:18:25.914Z,25.58
2017-07-10T08:19:06.370Z,25.55
2017-07-10T08:19:46.826Z,25.59
2017-07-10T08:20:27.281Z,25.55
2017-07-10T08:21:07.743Z,25.58
2017-07-10T08:21:48.190Z,25.43
2017-07-10T08:22:28.633Z,25.48
2017-07-10T08:23:09.083Z,25.49
2017-07-10T08:23:49.532Z,25.46
2017-07-10T08:24:29.983Z,25.51
2017-07-10T08:25:10.488Z,25.37
2017-07-10T08:25:50.967Z,25.48
2017-07-10T08:26:31.419Z,25.33
2017-07-10T08:27:11.857Z,25.39
2017-07-10T08:27:52.312Z,25.41
2017-07-10T08:28:32.765Z,25.37
2017-07-10T08:29:13.217Z,25.36
2017-07-10T08:31:26.140Z,25.51
2017-07-10T08:32:06.641Z,25.41
2017-07-10T08:32:47.102Z,25.36
2017-07-10T08:33:27.557Z,25.33
2017-07-10T08:34:08.014Z,25.33
2017-07-10T08:34:48.472Z,25.33
2017-07-10T08:35:28.931Z,25.46
2017-07-10T08:36:09.388Z,25.43
2017-07-10T08:36:49.842Z,25.33
2017-07-10T08:37:30.295Z,25.49
2017-07-10T08:38:10.742Z,25.52
2017-07-10T08:38:51.191Z,25.46
2017-07-10T08:39:31.643Z,25.4
2017-07-10T08:40:12.100Z,25.52
2017-07-10T08:40:52.552Z,25.46
2017-07-10T08:41:33.016Z,25.49
2017-07-10T08:42:13.462Z,25.49
2017-07-10T08:42:53.909Z,25.48
2017-07-10T08:43:34.360Z,25.54
2017-07-10T08:44:14.806Z,25.44
2017-07-10T08:44:55.254Z,25.55
2017-07-10T08:45:35.701Z,25.56